Hattiesburg Bobby L Chain Municipal Airport Hattiesburg US
ICAO: KHBG
IATA: HBG
Category: Medium
Scheduled Services: No

Elevation: 151 ft
TransAlt. 18000 ft.

Airport Communications:
ASOS:135.425
HOUSTON CNTR:126.8
CTAF/UNICOM:122.8

KHBG Zoom In..

If Map Doesn't Load, Click Here

Runways:

(A) RW 13 length 6094 ft width 150 ft
---- / hdg 132

(B) RW 31 length 6094 ft width 150 ft
---- / hdg 312

Location; KHBG
Day. 23 / Time. 21.53 Zulu
* Altimeter: 29.92
* Temperature: 27° c. 80.6°f.
* Wind from: 110° Speed 06 kn.
Dewpoint: 24° c.
Visibility: 10 Statute Miles.
Clouds: Overcast 11000 ft.

KHBG 232153Z AUTO 11006KT 10SM OVC110 27/24 A2992 RMK AO2 SLP128 T02720239 TSNO


Wind From 110°
Speed 06 kn.

 
 
jpsmedia.com for Web Design worldairports.se 2018   terms of use